Kenyon, Minnesota
Current Conditions -  °F | °C
As of 5:13 PM on Saturday 25 Oct 2014 (Local Time) from KSYN Reporting Station
Clear Clear  
Wind Chill: 16°   Ceiling: Unl
Heat Index: 16°   Visibility: 10mi
Dew Point: -3°   Wind: 13mph
Humidity: 27%   Direction: 300°WNW
Pressure: 30.03"   Gusts: NA
Location:  44.27°N, 92.99°W
Report Text: KSYN 252213Z AUTO 30011KT 10SM CLR 16/M03 A3003 RMK AO2 T01641028
Loading
Personal Weather Stations






























Interactive Weather Map
Tropical Storm Tracking
New forecast layout! Learn more

10-Day Weather Forecast

Advertisements
Track Severe Weather on mobile